sensor_id;sensor_type;location;lat;lon;timestamp;temperature;humidity
78184;DHT22;67442;44.570;18.610;2023-09-19T00:00:17;24.70;57.20
78184;DHT22;67442;44.570;18.610;2023-09-19T00:02:53;24.70;57.20
78184;DHT22;67442;44.570;18.610;2023-09-19T00:05:26;24.70;57.20
78184;DHT22;67442;44.570;18.610;2023-09-19T00:07:57;24.70;57.10
78184;DHT22;67442;44.570;18.610;2023-09-19T00:10:29;24.70;57.20
78184;DHT22;67442;44.570;18.610;2023-09-19T00:12:58;24.70;57.10
78184;DHT22;67442;44.570;18.610;2023-09-19T00:15:29;24.70;57.10
78184;DHT22;67442;44.570;18.610;2023-09-19T00:18:02;24.70;57.10
78184;DHT22;67442;44.570;18.610;2023-09-19T00:20:34;24.70;57.30
78184;DHT22;67442;44.570;18.610;2023-09-19T00:23:03;24.70;57.40
78184;DHT22;67442;44.570;18.610;2023-09-19T00:25:35;24.70;57.60
78184;DHT22;67442;44.570;18.610;2023-09-19T00:28:04;24.80;57.70
78184;DHT22;67442;44.570;18.610;2023-09-19T00:30:32;24.80;57.80
78184;DHT22;67442;44.570;18.610;2023-09-19T00:32:59;24.80;57.90
78184;DHT22;67442;44.570;18.610;2023-09-19T00:35:27;24.80;58.00
78184;DHT22;67442;44.570;18.610;2023-09-19T00:37:55;24.80;58.10
78184;DHT22;67442;44.570;18.610;2023-09-19T00:40:26;24.80;58.10
78184;DHT22;67442;44.570;18.610;2023-09-19T00:42:58;24.90;58.20
78184;DHT22;67442;44.570;18.610;2023-09-19T00:45:26;24.90;58.30
78184;DHT22;67442;44.570;18.610;2023-09-19T00:47:52;24.90;58.40
78184;DHT22;67442;44.570;18.610;2023-09-19T00:50:23;24.90;58.50
78184;DHT22;67442;44.570;18.610;2023-09-19T00:52:54;24.90;58.50
78184;DHT22;67442;44.570;18.610;2023-09-19T00:55:25;25.00;58.60
78184;DHT22;67442;44.570;18.610;2023-09-19T00:57:56;25.00;58.70
78184;DHT22;67442;44.570;18.610;2023-09-19T01:00:28;25.00;58.70
78184;DHT22;67442;44.570;18.610;2023-09-19T01:02:55;25.00;58.80
78184;DHT22;67442;44.570;18.610;2023-09-19T01:05:26;25.00;58.80
78184;DHT22;67442;44.570;18.610;2023-09-19T01:07:53;25.10;58.90
78184;DHT22;67442;44.570;18.610;2023-09-19T01:10:21;25.00;58.90
78184;DHT22;67442;44.570;18.610;2023-09-19T01:13:15;25.00;58.90
78184;DHT22;67442;44.570;18.610;2023-09-19T01:19:06;25.10;59.10
78184;DHT22;67442;44.570;18.610;2023-09-19T01:32:35;25.10;59.30
78184;DHT22;67442;44.570;18.610;2023-09-19T01:35:07;25.10;59.30
78184;DHT22;67442;44.570;18.610;2023-09-19T01:37:38;25.10;59.30
78184;DHT22;67442;44.570;18.610;2023-09-19T01:40:08;25.10;59.40
78184;DHT22;67442;44.570;18.610;2023-09-19T01:43:26;25.10;59.50
78184;DHT22;67442;44.570;18.610;2023-09-19T01:51:06;25.20;59.60
78184;DHT22;67442;44.570;18.610;2023-09-19T01:53:33;25.20;59.60
78184;DHT22;67442;44.570;18.610;2023-09-19T01:56:07;25.20;59.70
78184;DHT22;67442;44.570;18.610;2023-09-19T01:59:08;25.20;59.70
78184;DHT22;67442;44.570;18.610;2023-09-19T02:01:37;25.20;59.80
78184;DHT22;67442;44.570;18.610;2023-09-19T02:04:05;25.20;59.80
78184;DHT22;67442;44.570;18.610;2023-09-19T02:06:33;25.20;59.80
78184;DHT22;67442;44.570;18.610;2023-09-19T02:09:03;25.20;59.90
78184;DHT22;67442;44.570;18.610;2023-09-19T02:11:31;25.20;59.90
78184;DHT22;67442;44.570;18.610;2023-09-19T02:13:58;25.20;60.00
78184;DHT22;67442;44.570;18.610;2023-09-19T02:16:26;25.20;60.00
78184;DHT22;67442;44.570;18.610;2023-09-19T02:18:54;25.20;60.00
78184;DHT22;67442;44.570;18.610;2023-09-19T02:21:22;25.20;60.00
78184;DHT22;67442;44.570;18.610;2023-09-19T02:23:49;25.20;60.00
78184;DHT22;67442;44.570;18.610;2023-09-19T02:26:18;25.30;60.10
78184;DHT22;67442;44.570;18.610;2023-09-19T02:28:45;25.20;60.00
78184;DHT22;67442;44.570;18.610;2023-09-19T02:31:16;25.20;60.00
78184;DHT22;67442;44.570;18.610;2023-09-19T02:33:43;25.20;60.10
78184;DHT22;67442;44.570;18.610;2023-09-19T02:36:10;25.20;60.10
78184;DHT22;67442;44.570;18.610;2023-09-19T02:38:37;25.30;60.20
78184;DHT22;67442;44.570;18.610;2023-09-19T02:41:05;25.30;60.20
78184;DHT22;67442;44.570;18.610;2023-09-19T02:43:32;25.30;60.30
78184;DHT22;67442;44.570;18.610;2023-09-19T02:46:00;25.30;60.40
78184;DHT22;67442;44.570;18.610;2023-09-19T02:48:32;25.30;60.40
78184;DHT22;67442;44.570;18.610;2023-09-19T02:51:01;25.30;60.40
78184;DHT22;67442;44.570;18.610;2023-09-19T02:53:34;25.30;60.40
78184;DHT22;67442;44.570;18.610;2023-09-19T02:56:02;25.30;60.40
78184;DHT22;67442;44.570;18.610;2023-09-19T02:58:30;25.30;60.50
78184;DHT22;67442;44.570;18.610;2023-09-19T03:01:11;25.30;60.50
78184;DHT22;67442;44.570;18.610;2023-09-19T03:03:44;25.30;60.50
78184;DHT22;67442;44.570;18.610;2023-09-19T03:06:12;25.30;60.60
78184;DHT22;67442;44.570;18.610;2023-09-19T03:08:40;25.30;60.60
78184;DHT22;67442;44.570;18.610;2023-09-19T03:11:08;25.30;60.60
78184;DHT22;67442;44.570;18.610;2023-09-19T03:13:38;25.30;60.70
78184;DHT22;67442;44.570;18.610;2023-09-19T03:16:08;25.30;60.70
78184;DHT22;67442;44.570;18.610;2023-09-19T03:18:40;25.30;60.70
78184;DHT22;67442;44.570;18.610;2023-09-19T03:21:10;25.30;60.80
78184;DHT22;67442;44.570;18.610;2023-09-19T03:23:37;25.30;60.70
78184;DHT22;67442;44.570;18.610;2023-09-19T03:26:05;25.30;60.80
78184;DHT22;67442;44.570;18.610;2023-09-19T03:28:33;25.30;60.80
78184;DHT22;67442;44.570;18.610;2023-09-19T03:31:02;25.30;60.80
78184;DHT22;67442;44.570;18.610;2023-09-19T03:33:29;25.40;60.90
78184;DHT22;67442;44.570;18.610;2023-09-19T03:36:01;25.30;60.80
78184;DHT22;67442;44.570;18.610;2023-09-19T03:38:31;25.30;60.90
78184;DHT22;67442;44.570;18.610;2023-09-19T03:40:59;25.40;60.90
78184;DHT22;67442;44.570;18.610;2023-09-19T03:43:26;25.40;61.00
78184;DHT22;67442;44.570;18.610;2023-09-19T03:46:12;25.30;60.90
78184;DHT22;67442;44.570;18.610;2023-09-19T03:48:44;25.40;61.00
78184;DHT22;67442;44.570;18.610;2023-09-19T03:51:11;25.30;61.00
78184;DHT22;67442;44.570;18.610;2023-09-19T03:53:39;25.40;61.10
78184;DHT22;67442;44.570;18.610;2023-09-19T03:56:09;25.40;61.10
78184;DHT22;67442;44.570;18.610;2023-09-19T03:58:36;25.40;61.10
78184;DHT22;67442;44.570;18.610;2023-09-19T04:01:05;25.30;61.10
78184;DHT22;67442;44.570;18.610;2023-09-19T04:03:34;25.40;61.20
78184;DHT22;67442;44.570;18.610;2023-09-19T04:06:15;25.40;61.20
78184;DHT22;67442;44.570;18.610;2023-09-19T04:08:42;25.40;61.20
78184;DHT22;67442;44.570;18.610;2023-09-19T04:11:10;25.40;61.20
78184;DHT22;67442;44.570;18.610;2023-09-19T04:13:36;25.40;61.20
78184;DHT22;67442;44.570;18.610;2023-09-19T04:16:04;25.40;61.20
78184;DHT22;67442;44.570;18.610;2023-09-19T04:18:33;25.40;61.30
78184;DHT22;67442;44.570;18.610;2023-09-19T04:21:02;25.40;61.30
78184;DHT22;67442;44.570;18.610;2023-09-19T04:23:32;25.40;61.30
78184;DHT22;67442;44.570;18.610;2023-09-19T04:26:00;25.40;61.40
78184;DHT22;67442;44.570;18.610;2023-09-19T04:28:27;25.40;61.40
78184;DHT22;67442;44.570;18.610;2023-09-19T04:30:55;25.40;61.40
78184;DHT22;67442;44.570;18.610;2023-09-19T04:33:22;25.40;61.40
78184;DHT22;67442;44.570;18.610;2023-09-19T04:35:50;25.40;61.50
78184;DHT22;67442;44.570;18.610;2023-09-19T04:38:21;25.40;61.50
78184;DHT22;67442;44.570;18.610;2023-09-19T04:40:48;25.40;61.50
78184;DHT22;67442;44.570;18.610;2023-09-19T04:43:15;25.40;61.50
78184;DHT22;67442;44.570;18.610;2023-09-19T04:45:42;25.40;61.50
78184;DHT22;67442;44.570;18.610;2023-09-19T04:48:10;25.40;61.50
78184;DHT22;67442;44.570;18.610;2023-09-19T04:50:37;25.40;61.50
78184;DHT22;67442;44.570;18.610;2023-09-19T04:53:05;25.40;61.60
78184;DHT22;67442;44.570;18.610;2023-09-19T04:55:31;25.40;61.60
78184;DHT22;67442;44.570;18.610;2023-09-19T04:58:02;25.40;61.60
78184;DHT22;67442;44.570;18.610;2023-09-19T05:00:30;25.40;61.60
78184;DHT22;67442;44.570;18.610;2023-09-19T05:03:01;25.40;61.70
78184;DHT22;67442;44.570;18.610;2023-09-19T05:05:30;25.40;61.80
78184;DHT22;67442;44.570;18.610;2023-09-19T05:07:58;25.40;61.80
78184;DHT22;67442;44.570;18.610;2023-09-19T05:10:26;25.40;61.80
78184;DHT22;67442;44.570;18.610;2023-09-19T05:12:56;25.40;61.80
78184;DHT22;67442;44.570;18.610;2023-09-19T05:15:23;25.40;61.80
78184;DHT22;67442;44.570;18.610;2023-09-19T05:17:54;25.40;61.80
78184;DHT22;67442;44.570;18.610;2023-09-19T05:20:22;25.40;61.90
78184;DHT22;67442;44.570;18.610;2023-09-19T05:23:05;25.40;61.90
78184;DHT22;67442;44.570;18.610;2023-09-19T05:25:40;25.40;61.90
78184;DHT22;67442;44.570;18.610;2023-09-19T05:28:12;25.40;61.90
78184;DHT22;67442;44.570;18.610;2023-09-19T05:30:44;25.40;61.90
78184;DHT22;67442;44.570;18.610;2023-09-19T05:33:12;25.40;61.90
78184;DHT22;67442;44.570;18.610;2023-09-19T05:35:40;25.40;61.90
78184;DHT22;67442;44.570;18.610;2023-09-19T05:38:10;25.40;61.90
78184;DHT22;67442;44.570;18.610;2023-09-19T05:40:42;25.40;61.90
78184;DHT22;67442;44.570;18.610;2023-09-19T05:43:13;25.40;61.90
78184;DHT22;67442;44.570;18.610;2023-09-19T05:45:41;25.40;62.00
78184;DHT22;67442;44.570;18.610;2023-09-19T05:48:13;25.40;61.90
78184;DHT22;67442;44.570;18.610;2023-09-19T05:50:41;25.40;61.90
78184;DHT22;67442;44.570;18.610;2023-09-19T05:53:11;25.40;61.90
78184;DHT22;67442;44.570;18.610;2023-09-19T05:55:41;25.40;61.80
78184;DHT22;67442;44.570;18.610;2023-09-19T05:58:07;25.40;61.80
78184;DHT22;67442;44.570;18.610;2023-09-19T06:00:39;25.40;61.90
78184;DHT22;67442;44.570;18.610;2023-09-19T06:03:12;25.40;61.90
78184;DHT22;67442;44.570;18.610;2023-09-19T06:05:40;25.40;61.80
78184;DHT22;67442;44.570;18.610;2023-09-19T06:08:08;25.40;61.90
78184;DHT22;67442;44.570;18.610;2023-09-19T06:10:35;25.40;61.80
78184;DHT22;67442;44.570;18.610;2023-09-19T06:13:03;25.40;61.80
78184;DHT22;67442;44.570;18.610;2023-09-19T06:15:35;25.40;61.90
78184;DHT22;67442;44.570;18.610;2023-09-19T06:18:03;25.40;61.80
78184;DHT22;67442;44.570;18.610;2023-09-19T06:20:31;25.40;61.80
78184;DHT22;67442;44.570;18.610;2023-09-19T06:22:59;25.40;61.80
78184;DHT22;67442;44.570;18.610;2023-09-19T06:25:28;25.40;61.80
78184;DHT22;67442;44.570;18.610;2023-09-19T06:27:56;25.40;61.80
78184;DHT22;67442;44.570;18.610;2023-09-19T06:30:24;25.40;61.80
78184;DHT22;67442;44.570;18.610;2023-09-19T06:32:56;25.40;61.80
78184;DHT22;67442;44.570;18.610;2023-09-19T06:35:23;25.40;61.80
78184;DHT22;67442;44.570;18.610;2023-09-19T06:37:55;25.40;61.80
78184;DHT22;67442;44.570;18.610;2023-09-19T06:40:24;25.40;61.80
78184;DHT22;67442;44.570;18.610;2023-09-19T06:42:52;25.40;61.80
78184;DHT22;67442;44.570;18.610;2023-09-19T06:45:23;25.40;61.80
78184;DHT22;67442;44.570;18.610;2023-09-19T06:47:53;25.40;61.80
78184;DHT22;67442;44.570;18.610;2023-09-19T06:50:26;25.40;61.70
78184;DHT22;67442;44.570;18.610;2023-09-19T06:52:54;25.40;61.70
78184;DHT22;67442;44.570;18.610;2023-09-19T06:55:28;25.40;61.70
78184;DHT22;67442;44.570;18.610;2023-09-19T06:57:57;25.40;61.80
78184;DHT22;67442;44.570;18.610;2023-09-19T07:00:24;25.40;61.70
78184;DHT22;67442;44.570;18.610;2023-09-19T07:03:07;25.40;61.70
78184;DHT22;67442;44.570;18.610;2023-09-19T07:05:40;25.40;61.70
78184;DHT22;67442;44.570;18.610;2023-09-19T07:08:11;25.40;61.70
78184;DHT22;67442;44.570;18.610;2023-09-19T07:10:39;25.40;61.70
78184;DHT22;67442;44.570;18.610;2023-09-19T07:13:08;25.40;61.70
78184;DHT22;67442;44.570;18.610;2023-09-19T07:15:39;25.40;61.70
78184;DHT22;67442;44.570;18.610;2023-09-19T07:18:17;25.40;61.70
78184;DHT22;67442;44.570;18.610;2023-09-19T07:20:46;25.40;61.70
78184;DHT22;67442;44.570;18.610;2023-09-19T07:23:19;25.40;61.70
78184;DHT22;67442;44.570;18.610;2023-09-19T07:25:47;25.40;61.70
78184;DHT22;67442;44.570;18.610;2023-09-19T07:28:14;25.40;61.70
78184;DHT22;67442;44.570;18.610;2023-09-19T07:30:41;25.50;61.80
78184;DHT22;67442;44.570;18.610;2023-09-19T07:33:09;25.50;61.80
78184;DHT22;67442;44.570;18.610;2023-09-19T07:35:38;25.40;61.80
78184;DHT22;67442;44.570;18.610;2023-09-19T07:38:08;25.50;61.80
78184;DHT22;67442;44.570;18.610;2023-09-19T07:40:37;25.50;61.90
78184;DHT22;67442;44.570;18.610;2023-09-19T07:43:05;25.50;61.80
78184;DHT22;67442;44.570;18.610;2023-09-19T07:45:37;25.50;61.80
78184;DHT22;67442;44.570;18.610;2023-09-19T07:48:08;25.50;61.80
78184;DHT22;67442;44.570;18.610;2023-09-19T07:50:44;25.50;61.80
78184;DHT22;67442;44.570;18.610;2023-09-19T07:53:11;25.50;61.80
78184;DHT22;67442;44.570;18.610;2023-09-19T07:55:42;25.50;61.80
78184;DHT22;67442;44.570;18.610;2023-09-19T07:58:10;25.50;61.80
78184;DHT22;67442;44.570;18.610;2023-09-19T08:00:39;25.50;61.80
78184;DHT22;67442;44.570;18.610;2023-09-19T08:03:07;25.50;61.80
78184;DHT22;67442;44.570;18.610;2023-09-19T08:05:34;25.50;61.80
78184;DHT22;67442;44.570;18.610;2023-09-19T08:08:03;25.50;61.80
78184;DHT22;67442;44.570;18.610;2023-09-19T08:10:33;25.50;61.80
78184;DHT22;67442;44.570;18.610;2023-09-19T08:13:05;25.50;61.80
78184;DHT22;67442;44.570;18.610;2023-09-19T08:15:43;25.50;61.80
78184;DHT22;67442;44.570;18.610;2023-09-19T08:18:10;25.40;61.70
78184;DHT22;67442;44.570;18.610;2023-09-19T08:20:38;25.50;61.80
78184;DHT22;67442;44.570;18.610;2023-09-19T08:23:08;25.50;61.90
78184;DHT22;67442;44.570;18.610;2023-09-19T08:25:35;25.50;61.90
78184;DHT22;67442;44.570;18.610;2023-09-19T08:28:05;25.50;61.80
78184;DHT22;67442;44.570;18.610;2023-09-19T08:30:34;25.50;61.80
78184;DHT22;67442;44.570;18.610;2023-09-19T08:33:06;25.50;61.80
78184;DHT22;67442;44.570;18.610;2023-09-19T08:35:38;25.50;61.80
78184;DHT22;67442;44.570;18.610;2023-09-19T08:38:11;25.50;61.80
78184;DHT22;67442;44.570;18.610;2023-09-19T08:40:40;25.50;61.80
78184;DHT22;67442;44.570;18.610;2023-09-19T08:43:09;25.50;61.80
78184;DHT22;67442;44.570;18.610;2023-09-19T08:45:36;25.40;61.80
78184;DHT22;67442;44.570;18.610;2023-09-19T08:48:26;25.50;61.80
78184;DHT22;67442;44.570;18.610;2023-09-19T08:51:10;25.50;62.60
78184;DHT22;67442;44.570;18.610;2023-09-19T08:56:13;25.50;61.80
78184;DHT22;67442;44.570;18.610;2023-09-19T08:58:51;25.50;61.80
78184;DHT22;67442;44.570;18.610;2023-09-19T09:01:21;25.50;61.80
78184;DHT22;67442;44.570;18.610;2023-09-19T09:04:08;25.50;61.80
78184;DHT22;67442;44.570;18.610;2023-09-19T09:06:35;25.50;61.80
78184;DHT22;67442;44.570;18.610;2023-09-19T09:09:02;25.50;61.80
78184;DHT22;67442;44.570;18.610;2023-09-19T09:11:33;25.50;61.80
78184;DHT22;67442;44.570;18.610;2023-09-19T09:14:06;25.50;61.80
78184;DHT22;67442;44.570;18.610;2023-09-19T09:16:34;25.50;61.80
78184;DHT22;67442;44.570;18.610;2023-09-19T09:19:02;25.50;61.80
78184;DHT22;67442;44.570;18.610;2023-09-19T09:21:30;25.50;61.90
78184;DHT22;67442;44.570;18.610;2023-09-19T09:24:26;25.50;61.80
78184;DHT22;67442;44.570;18.610;2023-09-19T09:26:59;25.50;61.80
78184;DHT22;67442;44.570;18.610;2023-09-19T09:29:48;25.50;61.80
78184;DHT22;67442;44.570;18.610;2023-09-19T09:32:30;25.50;61.80
78184;DHT22;67442;44.570;18.610;2023-09-19T09:35:07;25.60;61.90
78184;DHT22;67442;44.570;18.610;2023-09-19T09:37:43;25.50;61.90
78184;DHT22;67442;44.570;18.610;2023-09-19T09:40:16;25.50;61.80
78184;DHT22;67442;44.570;18.610;2023-09-19T09:42:43;25.50;61.80
78184;DHT22;67442;44.570;18.610;2023-09-19T09:45:17;25.50;61.90
78184;DHT22;67442;44.570;18.610;2023-09-19T09:47:49;25.50;61.90
78184;DHT22;67442;44.570;18.610;2023-09-19T09:50:31;25.50;61.90
78184;DHT22;67442;44.570;18.610;2023-09-19T09:53:29;25.50;61.90
78184;DHT22;67442;44.570;18.610;2023-09-19T09:56:06;25.60;61.90
78184;DHT22;67442;44.570;18.610;2023-09-19T09:58:51;25.50;61.80
78184;DHT22;67442;44.570;18.610;2023-09-19T10:01:47;25.50;61.90
78184;DHT22;67442;44.570;18.610;2023-09-19T10:04:28;25.60;61.90
78184;DHT22;67442;44.570;18.610;2023-09-19T10:07:03;25.50;61.80
78184;DHT22;67442;44.570;18.610;2023-09-19T10:09:47;25.50;61.80
78184;DHT22;67442;44.570;18.610;2023-09-19T10:12:16;25.60;61.90
78184;DHT22;67442;44.570;18.610;2023-09-19T10:14:45;25.60;61.90
78184;DHT22;67442;44.570;18.610;2023-09-19T10:17:14;25.50;61.80
78184;DHT22;67442;44.570;18.610;2023-09-19T10:19:55;25.60;61.90
78184;DHT22;67442;44.570;18.610;2023-09-19T10:22:26;25.60;61.90
78184;DHT22;67442;44.570;18.610;2023-09-19T10:24:58;25.50;62.70
78184;DHT22;67442;44.570;18.610;2023-09-19T10:27:26;25.60;61.90
78184;DHT22;67442;44.570;18.610;2023-09-19T10:29:56;25.60;61.90
78184;DHT22;67442;44.570;18.610;2023-09-19T10:32:28;25.60;61.90
78184;DHT22;67442;44.570;18.610;2023-09-19T10:35:03;25.60;61.90
78184;DHT22;67442;44.570;18.610;2023-09-19T10:37:34;25.60;61.90
78184;DHT22;67442;44.570;18.610;2023-09-19T10:40:05;25.60;61.90
78184;DHT22;67442;44.570;18.610;2023-09-19T10:42:42;25.60;61.90
78184;DHT22;67442;44.570;18.610;2023-09-19T10:45:13;25.60;61.90
78184;DHT22;67442;44.570;18.610;2023-09-19T10:47:42;25.60;61.90
78184;DHT22;67442;44.570;18.610;2023-09-19T10:50:12;25.60;62.00
78184;DHT22;67442;44.570;18.610;2023-09-19T10:52:48;25.60;61.90
78184;DHT22;67442;44.570;18.610;2023-09-19T10:55:18;25.60;62.00
78184;DHT22;67442;44.570;18.610;2023-09-19T10:57:48;25.60;61.90
78184;DHT22;67442;44.570;18.610;2023-09-19T11:00:20;25.60;61.90
78184;DHT22;67442;44.570;18.610;2023-09-19T11:05:36;25.60;62.00
78184;DHT22;67442;44.570;18.610;2023-09-19T11:08:07;25.60;62.00
78184;DHT22;67442;44.570;18.610;2023-09-19T11:10:51;25.60;61.90
78184;DHT22;67442;44.570;18.610;2023-09-19T11:13:27;25.60;61.90
78184;DHT22;67442;44.570;18.610;2023-09-19T11:26:57;25.60;62.00
78184;DHT22;67442;44.570;18.610;2023-09-19T11:29:35;25.60;62.00
78184;DHT22;67442;44.570;18.610;2023-09-19T11:32:04;25.60;62.00
78184;DHT22;67442;44.570;18.610;2023-09-19T11:39:40;25.60;62.00
78184;DHT22;67442;44.570;18.610;2023-09-19T11:45:07;25.60;62.00
78184;DHT22;67442;44.570;18.610;2023-09-19T11:47:57;25.60;62.00
78184;DHT22;67442;44.570;18.610;2023-09-19T11:50:24;25.60;62.00
78184;DHT22;67442;44.570;18.610;2023-09-19T11:52:52;25.60;62.00
78184;DHT22;67442;44.570;18.610;2023-09-19T11:55:22;25.60;62.00
78184;DHT22;67442;44.570;18.610;2023-09-19T11:57:50;25.60;62.00
78184;DHT22;67442;44.570;18.610;2023-09-19T12:00:18;25.60;62.00
78184;DHT22;67442;44.570;18.610;2023-09-19T12:02:47;25.60;62.00
78184;DHT22;67442;44.570;18.610;2023-09-19T12:05:27;25.60;62.00
78184;DHT22;67442;44.570;18.610;2023-09-19T12:07:54;25.60;62.00
78184;DHT22;67442;44.570;18.610;2023-09-19T12:10:22;25.60;61.90
78184;DHT22;67442;44.570;18.610;2023-09-19T12:12:50;25.60;62.00
78184;DHT22;67442;44.570;18.610;2023-09-19T12:15:26;25.60;61.90
78184;DHT22;67442;44.570;18.610;2023-09-19T12:17:56;25.60;61.90
78184;DHT22;67442;44.570;18.610;2023-09-19T12:20:43;25.60;62.00
78184;DHT22;67442;44.570;18.610;2023-09-19T12:23:13;25.60;61.90
78184;DHT22;67442;44.570;18.610;2023-09-19T12:25:43;25.60;61.90
78184;DHT22;67442;44.570;18.610;2023-09-19T12:28:37;25.60;62.00
78184;DHT22;67442;44.570;18.610;2023-09-19T12:31:08;25.60;62.00
78184;DHT22;67442;44.570;18.610;2023-09-19T12:33:36;25.60;62.00
78184;DHT22;67442;44.570;18.610;2023-09-19T12:36:22;25.60;62.00
78184;DHT22;67442;44.570;18.610;2023-09-19T12:39:06;25.60;62.10
78184;DHT22;67442;44.570;18.610;2023-09-19T12:41:36;25.60;61.90
78184;DHT22;67442;44.570;18.610;2023-09-19T12:44:04;25.60;62.00
78184;DHT22;67442;44.570;18.610;2023-09-19T12:46:36;25.60;62.00
78184;DHT22;67442;44.570;18.610;2023-09-19T12:49:19;25.60;61.90
78184;DHT22;67442;44.570;18.610;2023-09-19T12:51:47;25.60;62.80
78184;DHT22;67442;44.570;18.610;2023-09-19T12:54:14;25.60;61.90
78184;DHT22;67442;44.570;18.610;2023-09-19T12:56:44;25.60;61.90
78184;DHT22;67442;44.570;18.610;2023-09-19T12:59:15;25.60;61.90
78184;DHT22;67442;44.570;18.610;2023-09-19T13:01:46;25.60;62.10
78184;DHT22;67442;44.570;18.610;2023-09-19T13:04:20;25.60;62.00
78184;DHT22;67442;44.570;18.610;2023-09-19T13:06:54;25.60;62.00
78184;DHT22;67442;44.570;18.610;2023-09-19T13:09:23;25.60;62.00
78184;DHT22;67442;44.570;18.610;2023-09-19T13:12:01;25.60;61.90
78184;DHT22;67442;44.570;18.610;2023-09-19T13:14:33;25.60;61.90
78184;DHT22;67442;44.570;18.610;2023-09-19T13:17:23;25.60;62.10
78184;DHT22;67442;44.570;18.610;2023-09-19T13:19:51;25.60;62.00
78184;DHT22;67442;44.570;18.610;2023-09-19T13:22:43;25.60;61.90
78184;DHT22;67442;44.570;18.610;2023-09-19T13:25:21;25.60;61.90
78184;DHT22;67442;44.570;18.610;2023-09-19T13:27:54;25.70;62.00
78184;DHT22;67442;44.570;18.610;2023-09-19T13:30:26;25.60;62.00
78184;DHT22;67442;44.570;18.610;2023-09-19T13:33:03;25.70;62.10
78184;DHT22;67442;44.570;18.610;2023-09-19T13:35:32;25.70;62.10
78184;DHT22;67442;44.570;18.610;2023-09-19T13:37:59;25.70;62.10
78184;DHT22;67442;44.570;18.610;2023-09-19T13:40:27;25.60;62.10
78184;DHT22;67442;44.570;18.610;2023-09-19T13:43:03;25.70;62.10
78184;DHT22;67442;44.570;18.610;2023-09-19T13:45:33;25.60;62.00
78184;DHT22;67442;44.570;18.610;2023-09-19T13:48:00;25.70;62.00
78184;DHT22;67442;44.570;18.610;2023-09-19T13:50:28;25.70;62.10
78184;DHT22;67442;44.570;18.610;2023-09-19T13:52:56;25.60;62.00
78184;DHT22;67442;44.570;18.610;2023-09-19T13:55:29;25.70;62.10
78184;DHT22;67442;44.570;18.610;2023-09-19T13:57:57;25.70;62.00
78184;DHT22;67442;44.570;18.610;2023-09-19T14:00:25;25.70;62.10
78184;DHT22;67442;44.570;18.610;2023-09-19T14:02:52;25.70;62.00
78184;DHT22;67442;44.570;18.610;2023-09-19T14:05:19;25.70;62.10
78184;DHT22;67442;44.570;18.610;2023-09-19T14:07:47;25.70;62.10
78184;DHT22;67442;44.570;18.610;2023-09-19T14:10:14;25.70;62.10
78184;DHT22;67442;44.570;18.610;2023-09-19T14:12:45;25.70;62.10
78184;DHT22;67442;44.570;18.610;2023-09-19T14:15:12;25.60;62.00
78184;DHT22;67442;44.570;18.610;2023-09-19T14:17:39;25.70;62.10
78184;DHT22;67442;44.570;18.610;2023-09-19T14:20:26;25.70;62.00
78184;DHT22;67442;44.570;18.610;2023-09-19T14:22:54;25.60;61.90
78184;DHT22;67442;44.570;18.610;2023-09-19T14:25:21;25.70;62.00
78184;DHT22;67442;44.570;18.610;2023-09-19T14:27:48;25.70;62.00
78184;DHT22;67442;44.570;18.610;2023-09-19T14:30:16;25.70;62.10
78184;DHT22;67442;44.570;18.610;2023-09-19T14:32:43;25.70;62.00
78184;DHT22;67442;44.570;18.610;2023-09-19T14:35:11;25.70;62.00
78184;DHT22;67442;44.570;18.610;2023-09-19T14:37:40;25.60;61.90
78184;DHT22;67442;44.570;18.610;2023-09-19T14:40:08;25.70;62.00
78184;DHT22;67442;44.570;18.610;2023-09-19T14:42:39;25.70;62.00
78184;DHT22;67442;44.570;18.610;2023-09-19T14:45:07;25.70;62.00
78184;DHT22;67442;44.570;18.610;2023-09-19T14:47:34;25.70;62.00
78184;DHT22;67442;44.570;18.610;2023-09-19T14:50:02;25.70;62.10
78184;DHT22;67442;44.570;18.610;2023-09-19T14:52:33;25.70;62.00
78184;DHT22;67442;44.570;18.610;2023-09-19T14:55:08;25.70;62.00
78184;DHT22;67442;44.570;18.610;2023-09-19T14:57:41;25.70;62.00
78184;DHT22;67442;44.570;18.610;2023-09-19T15:00:12;25.70;62.00
78184;DHT22;67442;44.570;18.610;2023-09-19T15:02:39;25.70;62.00
78184;DHT22;67442;44.570;18.610;2023-09-19T15:05:10;25.70;62.00
78184;DHT22;67442;44.570;18.610;2023-09-19T15:07:38;25.70;62.00
78184;DHT22;67442;44.570;18.610;2023-09-19T15:10:09;25.70;62.00
78184;DHT22;67442;44.570;18.610;2023-09-19T15:12:42;25.70;62.00
78184;DHT22;67442;44.570;18.610;2023-09-19T15:15:10;25.70;62.00
78184;DHT22;67442;44.570;18.610;2023-09-19T15:17:42;25.70;62.10
78184;DHT22;67442;44.570;18.610;2023-09-19T15:20:10;25.70;62.10
78184;DHT22;67442;44.570;18.610;2023-09-19T15:22:40;25.70;62.00
78184;DHT22;67442;44.570;18.610;2023-09-19T15:25:08;25.70;62.00
78184;DHT22;67442;44.570;18.610;2023-09-19T15:27:36;25.70;62.00
78184;DHT22;67442;44.570;18.610;2023-09-19T15:30:14;25.70;62.00
78184;DHT22;67442;44.570;18.610;2023-09-19T15:32:41;25.70;62.00
78184;DHT22;67442;44.570;18.610;2023-09-19T15:35:09;25.70;62.00
78184;DHT22;67442;44.570;18.610;2023-09-19T15:37:42;25.70;62.00
78184;DHT22;67442;44.570;18.610;2023-09-19T15:40:11;25.70;62.00
78184;DHT22;67442;44.570;18.610;2023-09-19T15:42:39;25.70;62.00
78184;DHT22;67442;44.570;18.610;2023-09-19T15:45:08;25.70;62.00
78184;DHT22;67442;44.570;18.610;2023-09-19T15:47:36;25.70;62.00
78184;DHT22;67442;44.570;18.610;2023-09-19T15:50:03;25.70;62.00
78184;DHT22;67442;44.570;18.610;2023-09-19T15:52:31;25.70;62.00
78184;DHT22;67442;44.570;18.610;2023-09-19T15:54:58;25.70;62.00
78184;DHT22;67442;44.570;18.610;2023-09-19T15:57:26;25.70;62.00
78184;DHT22;67442;44.570;18.610;2023-09-19T15:59:55;25.70;62.00
78184;DHT22;67442;44.570;18.610;2023-09-19T16:02:26;25.70;62.00
78184;DHT22;67442;44.570;18.610;2023-09-19T16:04:57;25.70;62.00
78184;DHT22;67442;44.570;18.610;2023-09-19T16:07:28;25.70;62.00
78184;DHT22;67442;44.570;18.610;2023-09-19T16:09:59;25.70;62.00
78184;DHT22;67442;44.570;18.610;2023-09-19T16:12:26;25.70;62.00
78184;DHT22;67442;44.570;18.610;2023-09-19T16:14:55;25.70;62.00
78184;DHT22;67442;44.570;18.610;2023-09-19T16:17:22;25.70;62.00
78184;DHT22;67442;44.570;18.610;2023-09-19T16:19:53;25.70;62.00
78184;DHT22;67442;44.570;18.610;2023-09-19T16:22:24;25.70;62.00